Etusivu
METAR-TAF:

METAR-TAF

Lentoasemat :

Sexton Summit, Oregon, Yhdysvallat

Leveyspiiri: 42-36-01N, Pituuspiiri: 123-21-51W, korkeus merenpinnasta: 0 m

Tämänhetkinen sää

Tämä raportti tehtiin 18 minuuttia sitten, kello 05.56 UTC
Tuuli 7 kn kaakosta
Lämpötila 6°C
Kosteus 56%
Ilmanpaine 1021 hPa
Näkyvyys: 16.1 km
selkeää

METAR: KSXT 010556Z AUTO 13007KT 10SM CLR 06/M02 A3015 RMK AO2 SLP214 T00611022 10089 20056 56009 $

Aika: 22:14 (06:14 UTC)


TAF: puuttuu

Säähavainnot ja -ennusteet yli 4000 lentoasemalta (METAR- ja TAF-raportit).

Käytössä olevat sääasemat on merkitty karttaan keltaisilla ja punaisilla pisteillä.

Aseta hiiri pisteen päälle nähdäksesi sääaseman nimen.

Klikkaa sitten nähdäksesi säähavainnot ja -ennusteet.

Kartan vaihtaminen: klikkaa mustalla rastilla varustettuja vihreitä pisteitä, niin voit zoomata sisään; viivalla varustettua vihreää pistettä, niin voit zoomata ulos tai vihreitä nuolia, niin pääset viereisille kartoille.


METAR-TAF: